Time;durP1;ratioP1;P1;durP2;ratioP2;P2;SDS_P1;SDS_P2;PMS_P1;PMS_P2;Temp;Humidity;BMP_temperature;BMP_pressure;BME280_temperature;BME280_humidity;BME280_pressure;Samples;Min_cycle;Max_cycle;Signal;HPM_P1;HPM_P2
2023/06/13 00:01:01;;;;;;;14.30;7.20;;;;;;;-128.00;-1.00;-1.00;102797;1260;1004625;-81
2023/06/13 00:03:49;;;;;;;9.80;5.80;;;;;;;-128.00;-1.00;-1.00;102766;1264;1064712;-81
2023/06/13 00:06:18;;;;;;;11.20;4.80;;;;;;;-128.00;-1.00;-1.00;102876;1259;1005047;-79
2023/06/13 00:08:44;;;;;;;11.30;6.90;;;;;;;-128.00;-1.00;-1.00;102865;1259;1059825;-80
2023/06/13 00:11:11;;;;;;;13.00;6.30;;;;;;;-128.00;-1.00;-1.00;102139;1259;1004183;-80
2023/06/13 00:13:41;;;;;;;9.70;5.40;;;;;;;-128.00;-1.00;-1.00;102147;1264;1003993;-81
2023/06/13 00:16:09;;;;;;;10.60;5.80;;;;;;;-128.00;-1.00;-1.00;102110;1260;1065069;-81
2023/06/13 00:18:37;;;;;;;7.80;5.60;;;;;;;-128.00;-1.00;-1.00;102291;1259;1004310;-80
2023/06/13 00:21:06;;;;;;;8.80;4.90;;;;;;;-128.00;-1.00;-1.00;102194;1264;1061788;-78
2023/06/13 00:23:32;;;;;;;9.00;5.10;;;;;;;-128.00;-1.00;-1.00;102304;1259;1045659;-82
2023/06/13 00:25:59;;;;;;;10.50;4.50;;;;;;;-128.00;-1.00;-1.00;102275;1259;1004280;-79
2023/06/13 00:28:25;;;;;;;7.40;4.90;;;;;;;-128.00;-1.00;-1.00;102232;1259;1004582;-79
2023/06/13 00:30:52;;;;;;;12.60;6.80;;;;;;;-128.00;-1.00;-1.00;102158;1259;1004814;-80
2023/06/13 00:33:18;;;;;;;10.10;5.60;;;;;;;-128.00;-1.00;-1.00;102339;1259;1004606;-81
2023/06/13 00:35:45;;;;;;;10.50;5.00;;;;;;;-128.00;-1.00;-1.00;102388;1262;1005468;-80
2023/06/13 00:38:12;;;;;;;7.40;4.80;;;;;;;-128.00;-1.00;-1.00;102365;1258;1005982;-81
2023/06/13 00:40:39;;;;;;;7.90;4.50;;;;;;;-128.00;-1.00;-1.00;102370;1260;1004146;-80
2023/06/13 00:43:06;;;;;;;7.90;4.80;;;;;;;-128.00;-1.00;-1.00;102299;1262;1004797;-80
2023/06/13 00:45:33;;;;;;;8.50;4.70;;;;;;;-128.00;-1.00;-1.00;102411;1260;1003959;-81
2023/06/13 00:48:02;;;;;;;9.60;5.60;;;;;;;-128.00;-1.00;-1.00;102441;1260;1004001;-79
2023/06/13 00:50:30;;;;;;;;;;;;;;;-128.00;-1.00;-1.00;102665;1263;1051132;-79
2023/06/13 00:52:58;;;;;;;9.10;4.90;;;;;;;-128.00;-1.00;-1.00;102708;1259;1065546;-78
2023/06/13 00:55:25;;;;;;;7.60;4.80;;;;;;;-128.00;-1.00;-1.00;102780;1263;1004142;-79
2023/06/13 00:57:56;;;;;;;8.30;4.90;;;;;;;-128.00;-1.00;-1.00;105162;1259;1004510;-77
2023/06/13 01:00:25;;;;;;;9.60;5.70;;;;;;;-128.00;-1.00;-1.00;105034;1259;1046070;-80
2023/06/13 01:02:58;;;;;;;7.60;5.30;;;;;;;-128.00;-1.00;-1.00;104182;1261;1047581;-79
2023/06/13 01:05:28;;;;;;;7.70;5.00;;;;;;;-128.00;-1.00;-1.00;102815;1259;1061777;-80
2023/06/13 01:07:58;;;;;;;7.40;5.00;;;;;;;-128.00;-1.00;-1.00;102273;1259;1061460;-79
2023/06/13 01:10:25;;;;;;;9.00;6.20;;;;;;;-128.00;-1.00;-1.00;102652;1260;1059194;-80
2023/06/13 01:13:03;;;;;;;10.80;5.20;;;;;;;-128.00;-1.00;-1.00;102696;1259;1004328;-79
2023/06/13 01:15:32;;;;;;;8.10;5.20;;;;;;;-128.00;-1.00;-1.00;102635;1262;1049748;-79
2023/06/13 01:18:00;;;;;;;9.00;5.00;;;;;;;-128.00;-1.00;-1.00;102860;1263;1062408;-80
2023/06/13 01:20:27;;;;;;;8.40;4.80;;;;;;;-128.00;-1.00;-1.00;102600;1262;1006237;-79
2023/06/13 01:23:14;;;;;;;8.90;4.80;;;;;;;-128.00;-1.00;-1.00;104641;1261;1004905;-81
2023/06/13 01:25:47;;;;;;;7.80;4.30;;;;;;;-128.00;-1.00;-1.00;105181;1259;1044764;-80
2023/06/13 01:28:14;;;;;;;6.70;4.60;;;;;;;-128.00;-1.00;-1.00;103277;1259;1047603;-79
2023/06/13 01:30:41;;;;;;;7.90;4.70;;;;;;;-128.00;-1.00;-1.00;102173;1260;1005763;-78
2023/06/13 01:33:08;;;;;;;8.30;4.90;;;;;;;-128.00;-1.00;-1.00;102181;1260;1005311;-79
2023/06/13 01:35:35;;;;;;;7.10;4.60;;;;;;;-128.00;-1.00;-1.00;102728;1259;1005633;-81
2023/06/13 01:38:05;;;;;;;7.30;4.40;;;;;;;-128.00;-1.00;-1.00;102293;1263;1003877;-79
2023/06/13 01:40:31;;;;;;;10.20;6.00;;;;;;;-128.00;-1.00;-1.00;102334;1260;1049285;-80
2023/06/13 01:42:58;;;;;;;6.20;4.00;;;;;;;-128.00;-1.00;-1.00;102331;1260;1004485;-79
2023/06/13 01:45:24;;;;;;;9.50;4.50;;;;;;;-128.00;-1.00;-1.00;102312;1259;1004298;-81
2023/06/13 01:48:02;;;;;;;9.10;4.60;;;;;;;-128.00;-1.00;-1.00;102345;1259;1005957;-80
2023/06/13 01:50:50;;;;;;;8.40;5.50;;;;;;;-128.00;-1.00;-1.00;102134;1259;1045153;-80
2023/06/13 01:53:46;;;;;;;10.10;5.20;;;;;;;-128.00;-1.00;-1.00;102161;1259;1046376;-80
2023/06/13 01:56:13;;;;;;;7.40;4.70;;;;;;;-128.00;-1.00;-1.00;102033;1259;1062871;-79
2023/06/13 01:58:52;;;;;;;8.50;5.70;;;;;;;-128.00;-1.00;-1.00;102186;1264;1004892;-78
2023/06/13 02:01:19;;;;;;;10.00;4.70;;;;;;;-128.00;-1.00;-1.00;102172;1259;1059035;-80
2023/06/13 02:03:45;;;;;;;6.80;4.10;;;;;;;-128.00;-1.00;-1.00;102136;1259;1004423;-81
2023/06/13 02:06:12;;;;;;;7.30;4.10;;;;;;;-128.00;-1.00;-1.00;102082;1259;1003939;-78
2023/06/13 02:08:38;;;;;;;8.10;4.90;;;;;;;-128.00;-1.00;-1.00;102210;1263;1004500;-80
2023/06/13 02:11:05;;;;;;;7.50;4.50;;;;;;;-128.00;-1.00;-1.00;102166;1259;1004632;-78
2023/06/13 02:13:31;;;;;;;11.60;5.40;;;;;;;-128.00;-1.00;-1.00;102159;1259;1005412;-78
2023/06/13 02:15:57;;;;;;;8.10;4.40;;;;;;;-128.00;-1.00;-1.00;102173;1259;1006861;-79
2023/06/13 02:18:25;;;;;;;9.10;4.70;;;;;;;-128.00;-1.00;-1.00;102217;1259;1003719;-79
2023/06/13 02:20:51;;;;;;;11.00;5.40;;;;;;;-128.00;-1.00;-1.00;102238;1259;1003840;-78
2023/06/13 02:23:18;;;;;;;5.80;4.60;;;;;;;-128.00;-1.00;-1.00;105164;1259;1004408;-80
2023/06/13 02:25:46;;;;;;;6.30;4.50;;;;;;;-128.00;-1.00;-1.00;105114;1260;1004418;-78
2023/06/13 02:28:13;;;;;;;5.00;3.90;;;;;;;-128.00;-1.00;-1.00;105178;1259;1004190;-81
2023/06/13 02:30:39;;;;;;;7.10;4.70;;;;;;;-128.00;-1.00;-1.00;105177;1259;1003935;-79
2023/06/13 02:33:08;;;;;;;8.80;4.90;;;;;;;-128.00;-1.00;-1.00;105230;1259;1004206;-79
2023/06/13 02:35:34;;;;;;;7.20;4.30;;;;;;;-128.00;-1.00;-1.00;105230;1258;1058316;-79
2023/06/13 02:38:00;;;;;;;7.10;4.40;;;;;;;-128.00;-1.00;-1.00;105222;1258;1005234;-81
2023/06/13 02:40:27;;;;;;;8.00;4.30;;;;;;;-128.00;-1.00;-1.00;105194;1258;1005179;-78
2023/06/13 02:42:53;;;;;;;7.10;4.70;;;;;;;-128.00;-1.00;-1.00;105239;1258;1003419;-79
2023/06/13 02:45:20;;;;;;;9.00;4.50;;;;;;;-128.00;-1.00;-1.00;103110;1258;1004215;-80
2023/06/13 02:47:46;;;;;;;7.10;4.30;;;;;;;-128.00;-1.00;-1.00;104755;1259;1004181;-79
2023/06/13 02:50:13;;;;;;;6.00;3.90;;;;;;;-128.00;-1.00;-1.00;105155;1259;1004453;-80
2023/06/13 02:52:39;;;;;;;8.90;5.00;;;;;;;-128.00;-1.00;-1.00;102371;1260;1004260;-80
2023/06/13 02:55:07;;;;;;;7.00;4.50;;;;;;;-128.00;-1.00;-1.00;102159;1259;1004771;-80
2023/06/13 02:57:36;;;;;;;7.40;5.20;;;;;;;-128.00;-1.00;-1.00;102226;1259;1004789;-78
2023/06/13 03:00:09;;;;;;;6.80;4.90;;;;;;;-128.00;-1.00;-1.00;102153;1263;1060866;-78
2023/06/13 03:02:36;;;;;;;7.10;4.10;;;;;;;-128.00;-1.00;-1.00;102398;1259;1058994;-78
2023/06/13 03:05:05;;;;;;;11.70;5.30;;;;;;;-128.00;-1.00;-1.00;101957;1265;1004286;-80
2023/06/13 03:07:32;;;;;;;7.90;5.20;;;;;;;-128.00;-1.00;-1.00;102537;1264;1046369;-78
2023/06/13 03:10:00;;;;;;;10.60;4.70;;;;;;;-128.00;-1.00;-1.00;102023;1262;1004522;-79
2023/06/13 03:12:27;;;;;;;8.20;5.20;;;;;;;-128.00;-1.00;-1.00;102104;1259;1004489;-79
2023/06/13 03:14:53;;;;;;;5.80;4.20;;;;;;;-128.00;-1.00;-1.00;102167;1259;1005790;-79
2023/06/13 03:17:20;;;;;;;10.30;4.50;;;;;;;-128.00;-1.00;-1.00;102175;1263;1005224;-79
2023/06/13 03:19:46;;;;;;;8.60;4.30;;;;;;;-128.00;-1.00;-1.00;102059;1259;1005494;-78
2023/06/13 03:22:14;;;;;;;7.70;4.80;;;;;;;-128.00;-1.00;-1.00;102120;1259;1004512;-78
2023/06/13 03:24:42;;;;;;;5.50;3.90;;;;;;;-128.00;-1.00;-1.00;102167;1259;1004926;-78
2023/06/13 03:27:09;;;;;;;7.50;4.60;;;;;;;-128.00;-1.00;-1.00;102063;1259;1004944;-78
2023/06/13 03:29:36;;;;;;;8.20;4.30;;;;;;;-128.00;-1.00;-1.00;102138;1263;1004809;-78
2023/06/13 03:32:02;;;;;;;7.00;4.50;;;;;;;-128.00;-1.00;-1.00;102203;1259;1003919;-80
2023/06/13 03:34:29;;;;;;;12.20;5.20;;;;;;;-128.00;-1.00;-1.00;102261;1260;1004698;-79
2023/06/13 03:36:56;;;;;;;8.00;5.40;;;;;;;-128.00;-1.00;-1.00;102299;1262;1004510;-79
2023/06/13 03:39:22;;;;;;;9.90;4.80;;;;;;;-128.00;-1.00;-1.00;102254;1259;1004348;-80
2023/06/13 03:41:49;;;;;;;10.20;4.90;;;;;;;-128.00;-1.00;-1.00;102243;1260;1005153;-80
2023/06/13 03:44:15;;;;;;;13.50;5.80;;;;;;;-128.00;-1.00;-1.00;102276;1258;1004746;-78
2023/06/13 03:46:42;;;;;;;9.60;4.30;;;;;;;-128.00;-1.00;-1.00;102279;1262;1004559;-78
2023/06/13 03:49:08;;;;;;;7.40;4.90;;;;;;;-128.00;-1.00;-1.00;102144;1260;1004475;-80
2023/06/13 03:51:34;;;;;;;6.10;4.60;;;;;;;-128.00;-1.00;-1.00;102081;1259;1004580;-80
2023/06/13 03:54:01;;;;;;;9.70;4.10;;;;;;;-128.00;-1.00;-1.00;102226;1260;1003761;-80
2023/06/13 03:56:28;;;;;;;9.00;4.70;;;;;;;-128.00;-1.00;-1.00;102092;1260;1004133;-79
2023/06/13 03:58:54;;;;;;;7.50;4.50;;;;;;;-128.00;-1.00;-1.00;102198;1263;1004969;-78
2023/06/13 04:01:20;;;;;;;6.60;4.60;;;;;;;-128.00;-1.00;-1.00;102086;1264;1004417;-78
2023/06/13 04:03:47;;;;;;;15.30;4.80;;;;;;;-128.00;-1.00;-1.00;102129;1260;1006443;-80
2023/06/13 04:06:13;;;;;;;10.00;5.70;;;;;;;-128.00;-1.00;-1.00;102109;1259;1003992;-78
2023/06/13 04:08:40;;;;;;;8.40;5.40;;;;;;;-128.00;-1.00;-1.00;102223;1259;1005175;-80
2023/06/13 04:11:06;;;;;;;7.60;5.30;;;;;;;-128.00;-1.00;-1.00;102141;1260;1007188;-78
2023/06/13 04:13:33;;;;;;;11.20;4.60;;;;;;;-128.00;-1.00;-1.00;102145;1263;1003597;-81
2023/06/13 04:16:00;;;;;;;7.50;5.50;;;;;;;-128.00;-1.00;-1.00;102186;1259;1004734;-80
2023/06/13 04:18:27;;;;;;;10.70;6.20;;;;;;;-128.00;-1.00;-1.00;102210;1264;1004613;-79
2023/06/13 04:20:53;;;;;;;9.70;6.40;;;;;;;-128.00;-1.00;-1.00;102053;1264;1005036;-78
2023/06/13 04:23:20;;;;;;;10.00;6.20;;;;;;;-128.00;-1.00;-1.00;102077;1264;1004481;-78
2023/06/13 04:25:46;;;;;;;12.20;5.90;;;;;;;-128.00;-1.00;-1.00;102074;1260;1005843;-78
2023/06/13 04:28:13;;;;;;;11.90;6.10;;;;;;;-128.00;-1.00;-1.00;102078;1260;1004210;-79
2023/06/13 04:30:40;;;;;;;10.30;7.30;;;;;;;-128.00;-1.00;-1.00;102074;1264;1005426;-78
2023/06/13 04:33:14;;;;;;;10.90;6.50;;;;;;;-128.00;-1.00;-1.00;102272;1262;1003775;-79
2023/06/13 04:35:44;;;;;;;9.20;6.00;;;;;;;-128.00;-1.00;-1.00;102330;1260;1064800;-79
2023/06/13 04:38:11;;;;;;;8.80;6.10;;;;;;;-128.00;-1.00;-1.00;102899;1259;1060926;-81
2023/06/13 04:40:38;;;;;;;13.70;6.10;;;;;;;-128.00;-1.00;-1.00;102222;1260;1004801;-82
2023/06/13 04:43:05;;;;;;;7.90;5.90;;;;;;;-128.00;-1.00;-1.00;102231;1260;1004135;-79
2023/06/13 04:45:33;;;;;;;11.20;6.20;;;;;;;-128.00;-1.00;-1.00;102709;1263;1003821;-79
2023/06/13 04:48:01;;;;;;;9.10;5.90;;;;;;;-128.00;-1.00;-1.00;102803;1262;1004355;-81
2023/06/13 04:50:28;;;;;;;9.70;5.20;;;;;;;-128.00;-1.00;-1.00;102663;1259;1004456;-81
2023/06/13 04:52:56;;;;;;;9.30;5.30;;;;;;;-128.00;-1.00;-1.00;102871;1259;1004262;-82
2023/06/13 04:55:25;;;;;;;8.90;5.50;;;;;;;-128.00;-1.00;-1.00;102732;1259;1004555;-81
2023/06/13 04:57:51;;;;;;;6.90;4.50;;;;;;;-128.00;-1.00;-1.00;102912;1262;1047188;-81
2023/06/13 05:00:19;;;;;;;9.90;5.20;;;;;;;-128.00;-1.00;-1.00;102587;1259;1005376;-82
2023/06/13 05:02:46;;;;;;;12.60;5.80;;;;;;;-128.00;-1.00;-1.00;102660;1259;1004874;-81
2023/06/13 05:05:16;;;;;;;7.80;4.60;;;;;;;-128.00;-1.00;-1.00;102653;1259;1005267;-79
2023/06/13 05:07:43;;;;;;;8.20;5.90;;;;;;;-128.00;-1.00;-1.00;102646;1259;1050070;-82
2023/06/13 05:10:09;;;;;;;7.30;5.40;;;;;;;-128.00;-1.00;-1.00;102627;1259;1004371;-79
2023/06/13 05:12:35;;;;;;;6.00;3.90;;;;;;;-128.00;-1.00;-1.00;102744;1262;1005196;-82
2023/06/13 05:15:02;;;;;;;6.40;3.90;;;;;;;-128.00;-1.00;-1.00;102830;1260;1003907;-81
2023/06/13 05:17:29;;;;;;;9.20;4.30;;;;;;;-128.00;-1.00;-1.00;102758;1263;1006992;-79
2023/06/13 05:19:55;;;;;;;7.50;4.50;;;;;;;-128.00;-1.00;-1.00;102834;1259;1004825;-80
2023/06/13 05:22:22;;;;;;;8.10;4.50;;;;;;;-128.00;-1.00;-1.00;102692;1259;1004199;-79
2023/06/13 05:24:48;;;;;;;8.60;5.40;;;;;;;-128.00;-1.00;-1.00;102618;1259;1004057;-79
2023/06/13 05:27:15;;;;;;;10.20;4.30;;;;;;;-128.00;-1.00;-1.00;102746;1259;1004728;-79
2023/06/13 05:29:42;;;;;;;8.70;4.40;;;;;;;-128.00;-1.00;-1.00;102641;1265;1004871;-82
2023/06/13 05:32:08;;;;;;;9.20;5.40;;;;;;;-128.00;-1.00;-1.00;102586;1264;1005102;-79
2023/06/13 05:34:34;;;;;;;8.50;4.90;;;;;;;-128.00;-1.00;-1.00;102694;1259;1003710;-80
2023/06/13 05:37:01;;;;;;;11.50;5.50;;;;;;;-128.00;-1.00;-1.00;102731;1260;1004555;-80
2023/06/13 05:39:28;;;;;;;9.70;4.70;;;;;;;-128.00;-1.00;-1.00;102717;1259;1004032;-82
2023/06/13 05:41:55;;;;;;;8.30;4.00;;;;;;;-128.00;-1.00;-1.00;102567;1259;1004740;-79
2023/06/13 05:44:21;;;;;;;16.90;5.50;;;;;;;-128.00;-1.00;-1.00;102680;1262;1005311;-82
2023/06/13 05:46:47;;;;;;;9.30;4.40;;;;;;;-128.00;-1.00;-1.00;102665;1264;1004476;-80
2023/06/13 05:49:14;;;;;;;7.50;4.40;;;;;;;-128.00;-1.00;-1.00;102760;1259;1004283;-79
2023/06/13 05:51:40;;;;;;;6.70;4.30;;;;;;;-128.00;-1.00;-1.00;102672;1259;1004735;-79
2023/06/13 05:54:06;;;;;;;6.20;4.00;;;;;;;-128.00;-1.00;-1.00;102710;1260;1004709;-81
2023/06/13 05:56:35;;;;;;;6.80;3.30;;;;;;;-128.00;-1.00;-1.00;103518;1262;1004041;-79
2023/06/13 05:59:01;;;;;;;7.10;3.30;;;;;;;-128.00;-1.00;-1.00;102302;1260;1005249;-81
2023/06/13 06:01:29;;;;;;;6.60;3.70;;;;;;;-128.00;-1.00;-1.00;102846;1259;1004135;-80
2023/06/13 06:03:55;;;;;;;5.70;3.50;;;;;;;-128.00;-1.00;-1.00;102244;1260;1005862;-79
2023/06/13 06:06:22;;;;;;;5.50;3.40;;;;;;;-128.00;-1.00;-1.00;102763;1259;1003564;-78
2023/06/13 06:08:48;;;;;;;5.10;3.60;;;;;;;-128.00;-1.00;-1.00;102220;1259;1005969;-80
2023/06/13 06:11:15;;;;;;;4.90;3.80;;;;;;;-128.00;-1.00;-1.00;102222;1259;1004875;-82
2023/06/13 06:13:42;;;;;;;10.80;3.80;;;;;;;-128.00;-1.00;-1.00;103234;1260;1004619;-80
2023/06/13 06:16:09;;;;;;;4.30;3.10;;;;;;;-128.00;-1.00;-1.00;102250;1259;1003895;-80
2023/06/13 06:18:35;;;;;;;8.80;3.30;;;;;;;-128.00;-1.00;-1.00;102373;1262;1005281;-80
2023/06/13 06:21:02;;;;;;;7.00;4.00;;;;;;;-128.00;-1.00;-1.00;102236;1259;1004164;-81
2023/06/13 06:23:28;;;;;;;7.60;3.40;;;;;;;-128.00;-1.00;-1.00;102214;1262;1005901;-81
2023/06/13 06:25:55;;;;;;;4.30;3.00;;;;;;;-128.00;-1.00;-1.00;102287;1260;1005261;-78
2023/06/13 06:28:21;;;;;;;5.70;3.10;;;;;;;-128.00;-1.00;-1.00;102345;1260;1004250;-80
2023/06/13 06:30:48;;;;;;;4.30;2.50;;;;;;;-128.00;-1.00;-1.00;102269;1260;1004672;-78
2023/06/13 06:33:15;;;;;;;7.00;3.30;;;;;;;-128.00;-1.00;-1.00;102266;1263;1006264;-81
2023/06/13 06:35:42;;;;;;;6.30;2.50;;;;;;;-128.00;-1.00;-1.00;102282;1259;1004396;-81
2023/06/13 06:38:08;;;;;;;9.20;3.40;;;;;;;-128.00;-1.00;-1.00;102481;1260;1005046;-82
2023/06/13 06:40:34;;;;;;;4.60;2.60;;;;;;;-128.00;-1.00;-1.00;102248;1265;1004976;-81
2023/06/13 06:43:01;;;;;;;6.00;2.30;;;;;;;-128.00;-1.00;-1.00;102349;1259;1004684;-81
2023/06/13 06:45:27;;;;;;;5.60;2.80;;;;;;;-128.00;-1.00;-1.00;102380;1262;1003947;-79
2023/06/13 06:47:54;;;;;;;3.30;2.40;;;;;;;-128.00;-1.00;-1.00;102317;1259;1004243;-81
2023/06/13 06:50:20;;;;;;;4.40;2.60;;;;;;;-128.00;-1.00;-1.00;102276;1262;1004760;-78
2023/06/13 06:52:46;;;;;;;4.40;2.80;;;;;;;-128.00;-1.00;-1.00;102241;1260;1004017;-78
2023/06/13 06:55:13;;;;;;;6.10;2.60;;;;;;;-128.00;-1.00;-1.00;102300;1260;1004619;-81
2023/06/13 06:57:39;;;;;;;3.40;2.70;;;;;;;-128.00;-1.00;-1.00;102322;1259;1047097;-78
2023/06/13 07:00:08;;;;;;;3.70;2.50;;;;;;;-128.00;-1.00;-1.00;102278;1263;1003784;-78
2023/06/13 07:02:35;;;;;;;4.40;3.20;;;;;;;-128.00;-1.00;-1.00;102228;1261;1060546;-81
2023/06/13 07:05:02;;;;;;;4.60;2.90;;;;;;;-128.00;-1.00;-1.00;102252;1259;1004689;-81
2023/06/13 07:07:29;;;;;;;4.50;2.50;;;;;;;-128.00;-1.00;-1.00;102332;1259;1004839;-78
2023/06/13 07:09:55;;;;;;;5.10;2.40;;;;;;;-128.00;-1.00;-1.00;102228;1259;1004651;-80
2023/06/13 07:12:22;;;;;;;3.90;2.80;;;;;;;-128.00;-1.00;-1.00;102260;1262;1004302;-80
2023/06/13 07:14:48;;;;;;;6.20;3.00;;;;;;;-128.00;-1.00;-1.00;102212;1259;1004523;-81
2023/06/13 07:17:15;;;;;;;8.90;2.60;;;;;;;-128.00;-1.00;-1.00;102361;1263;1005390;-81
2023/06/13 07:19:41;;;;;;;4.50;3.10;;;;;;;-128.00;-1.00;-1.00;102399;1260;1004828;-81
2023/06/13 07:22:07;;;;;;;5.20;2.90;;;;;;;-128.00;-1.00;-1.00;102387;1261;1006007;-78
2023/06/13 07:24:34;;;;;;;3.50;2.10;;;;;;;-128.00;-1.00;-1.00;102464;1264;1004986;-81
2023/06/13 07:27:00;;;;;;;6.40;2.60;;;;;;;-128.00;-1.00;-1.00;102500;1265;1003399;-81
2023/06/13 07:29:26;;;;;;;4.50;1.80;;;;;;;-128.00;-1.00;-1.00;102482;1265;1004968;-81
2023/06/13 07:31:53;;;;;;;3.60;2.00;;;;;;;-128.00;-1.00;-1.00;102625;1258;1003753;-81
2023/06/13 07:34:20;;;;;;;3.10;2.40;;;;;;;-128.00;-1.00;-1.00;102656;1260;1004434;-78
2023/06/13 07:36:47;;;;;;;7.70;2.10;;;;;;;-128.00;-1.00;-1.00;103248;1259;1057997;-78
2023/06/13 07:39:14;;;;;;;7.30;2.80;;;;;;;-128.00;-1.00;-1.00;103154;1260;1004361;-81
2023/06/13 07:41:40;;;;;;;4.30;2.00;;;;;;;-128.00;-1.00;-1.00;102384;1265;1007228;-78
2023/06/13 07:44:07;;;;;;;5.20;2.60;;;;;;;-128.00;-1.00;-1.00;102801;1262;1004775;-81
2023/06/13 07:46:33;;;;;;;3.60;2.20;;;;;;;-128.00;-1.00;-1.00;102808;1259;1004427;-78
2023/06/13 07:49:00;;;;;;;7.80;2.70;;;;;;;-128.00;-1.00;-1.00;103172;1259;1004465;-78
2023/06/13 07:51:27;;;;;;;4.30;2.60;;;;;;;-128.00;-1.00;-1.00;102692;1260;1005064;-81
2023/06/13 07:53:54;;;;;;;3.80;2.60;;;;;;;-128.00;-1.00;-1.00;102774;1261;1003576;-81
2023/06/13 07:56:20;;;;;;;2.90;2.20;;;;;;;-128.00;-1.00;-1.00;102892;1262;1005550;-82
2023/06/13 07:58:47;;;;;;;6.70;3.40;;;;;;;-128.00;-1.00;-1.00;102861;1259;1004318;-81
2023/06/13 08:01:13;;;;;;;5.00;3.10;;;;;;;-128.00;-1.00;-1.00;102632;1260;1005061;-81
2023/06/13 08:03:40;;;;;;;3.40;2.50;;;;;;;-128.00;-1.00;-1.00;102802;1259;1004912;-81
2023/06/13 08:06:06;;;;;;;4.20;2.90;;;;;;;-128.00;-1.00;-1.00;102793;1263;1004018;-81
2023/06/13 08:08:32;;;;;;;5.70;2.50;;;;;;;-128.00;-1.00;-1.00;102685;1259;1003958;-82
2023/06/13 08:11:00;;;;;;;4.70;2.90;;;;;;;-128.00;-1.00;-1.00;102683;1259;1004595;-81
2023/06/13 08:13:26;;;;;;;5.10;2.20;;;;;;;-128.00;-1.00;-1.00;102741;1260;1004932;-81
2023/06/13 08:15:53;;;;;;;2.90;2.10;;;;;;;-128.00;-1.00;-1.00;102261;1259;1003810;-79
2023/06/13 08:18:19;;;;;;;4.30;3.20;;;;;;;-128.00;-1.00;-1.00;102197;1263;1005529;-79
2023/06/13 08:20:47;;;;;;;6.00;3.00;;;;;;;-128.00;-1.00;-1.00;102685;1259;1004173;-81
2023/06/13 08:23:14;;;;;;;4.20;2.90;;;;;;;-128.00;-1.00;-1.00;102927;1263;1004006;-79
2023/06/13 08:25:43;;;;;;;6.30;2.70;;;;;;;-128.00;-1.00;-1.00;102873;1260;1004947;-82
2023/06/13 08:28:11;;;;;;;6.60;2.40;;;;;;;-128.00;-1.00;-1.00;102938;1259;1059518;-79
2023/06/13 08:30:38;;;;;;;5.80;2.90;;;;;;;-128.00;-1.00;-1.00;102724;1259;1004911;-79
2023/06/13 08:33:04;;;;;;;4.60;2.90;;;;;;;-128.00;-1.00;-1.00;102784;1260;1004141;-82
2023/06/13 08:35:31;;;;;;;3.80;2.50;;;;;;;-128.00;-1.00;-1.00;102781;1259;1004541;-82
2023/06/13 08:37:57;;;;;;;3.90;2.50;;;;;;;-128.00;-1.00;-1.00;102874;1262;1005740;-82
2023/06/13 08:40:24;;;;;;;6.00;2.20;;;;;;;-128.00;-1.00;-1.00;102693;1259;1005419;-81
2023/06/13 08:42:50;;;;;;;3.30;2.10;;;;;;;-128.00;-1.00;-1.00;102186;1265;1005368;-81
2023/06/13 08:45:16;;;;;;;5.80;2.10;;;;;;;-128.00;-1.00;-1.00;102249;1259;1003812;-79
2023/06/13 08:47:46;;;;;;;4.20;2.50;;;;;;;-128.00;-1.00;-1.00;102920;1259;1004300;-81
2023/06/13 08:50:18;;;;;;;4.40;2.10;;;;;;;-128.00;-1.00;-1.00;102714;1263;1058655;-79
2023/06/13 08:52:46;;;;;;;4.60;2.10;;;;;;;-128.00;-1.00;-1.00;102712;1260;1061495;-81
2023/06/13 08:55:14;;;;;;;4.10;1.80;;;;;;;-128.00;-1.00;-1.00;102875;1262;1004365;-80
2023/06/13 08:57:41;;;;;;;2.50;2.00;;;;;;;-128.00;-1.00;-1.00;102893;1260;1005049;-81
2023/06/13 09:00:12;;;;;;;3.40;1.70;;;;;;;-128.00;-1.00;-1.00;102764;1263;1004790;-81
2023/06/13 09:02:39;;;;;;;4.30;2.00;;;;;;;-128.00;-1.00;-1.00;102807;1260;1058528;-79
2023/06/13 09:05:06;;;;;;;4.80;2.00;;;;;;;-128.00;-1.00;-1.00;103527;1264;1003721;-79
2023/06/13 09:07:33;;;;;;;2.80;1.80;;;;;;;-128.00;-1.00;-1.00;102720;1259;1004531;-79
2023/06/13 09:09:59;;;;;;;2.90;1.80;;;;;;;-128.00;-1.00;-1.00;102709;1259;1004137;-79
2023/06/13 09:12:26;;;;;;;4.20;2.00;;;;;;;-128.00;-1.00;-1.00;102738;1265;1004396;-79
2023/06/13 09:14:52;;;;;;;2.60;1.70;;;;;;;-128.00;-1.00;-1.00;102934;1262;1004194;-79
2023/06/13 09:17:19;;;;;;;3.60;1.80;;;;;;;-128.00;-1.00;-1.00;103027;1260;1004203;-79
2023/06/13 09:19:47;;;;;;;3.70;1.60;;;;;;;-128.00;-1.00;-1.00;104122;1259;1003829;-82
2023/06/13 09:22:16;;;;;;;3.60;1.30;;;;;;;-128.00;-1.00;-1.00;103074;1261;1003986;-81
2023/06/13 09:24:42;;;;;;;2.20;1.30;;;;;;;-128.00;-1.00;-1.00;103224;1259;1004772;-78
2023/06/13 09:27:09;;;;;;;3.60;1.70;;;;;;;-128.00;-1.00;-1.00;103016;1265;1006454;-81
2023/06/13 09:29:35;;;;;;;5.20;1.80;;;;;;;-128.00;-1.00;-1.00;102962;1259;1004396;-81
2023/06/13 09:32:03;;;;;;;4.10;1.80;;;;;;;-128.00;-1.00;-1.00;103207;1263;1005003;-79
2023/06/13 09:34:29;;;;;;;2.30;1.40;;;;;;;-128.00;-1.00;-1.00;105120;1257;1003340;-79
2023/06/13 09:36:57;;;;;;;2.30;1.60;;;;;;;-128.00;-1.00;-1.00;105110;1261;1003519;-82
2023/06/13 09:39:24;;;;;;;3.20;1.70;;;;;;;-128.00;-1.00;-1.00;105086;1263;1003688;-81
2023/06/13 09:41:57;;;;;;;4.20;1.90;;;;;;;-128.00;-1.00;-1.00;103077;1260;1004354;-81
2023/06/13 09:44:24;;;;;;;3.90;1.50;;;;;;;-128.00;-1.00;-1.00;102903;1260;1044715;-79
2023/06/13 09:46:51;;;;;;;3.70;1.70;;;;;;;-128.00;-1.00;-1.00;102730;1263;1004228;-82
2023/06/13 09:49:18;;;;;;;3.30;1.30;;;;;;;-128.00;-1.00;-1.00;102885;1262;1005638;-81
2023/06/13 09:51:45;;;;;;;5.60;2.10;;;;;;;-128.00;-1.00;-1.00;102565;1259;1004922;-81
2023/06/13 09:54:13;;;;;;;5.40;1.90;;;;;;;-128.00;-1.00;-1.00;102913;1260;1005711;-81
2023/06/13 09:56:41;;;;;;;15.00;2.00;;;;;;;-128.00;-1.00;-1.00;102755;1265;1005051;-78
2023/06/13 09:59:18;;;;;;;2.70;1.90;;;;;;;-128.00;-1.00;-1.00;102866;1262;1048131;-79
2023/06/13 10:01:46;;;;;;;5.20;1.60;;;;;;;-128.00;-1.00;-1.00;102676;1260;1064541;-79
2023/06/13 10:04:13;;;;;;;5.90;2.00;;;;;;;-128.00;-1.00;-1.00;102925;1261;1060382;-79
2023/06/13 10:06:40;;;;;;;4.30;1.70;;;;;;;-128.00;-1.00;-1.00;102783;1265;1004238;-81
2023/06/13 10:09:07;;;;;;;4.90;1.70;;;;;;;-128.00;-1.00;-1.00;102743;1260;1004376;-81
2023/06/13 10:11:36;;;;;;;2.80;1.60;;;;;;;-128.00;-1.00;-1.00;102598;1263;1005006;-80
2023/06/13 10:14:06;;;;;;;3.60;1.50;;;;;;;-128.00;-1.00;-1.00;102588;1260;1063468;-80
2023/06/13 10:16:35;;;;;;;5.50;1.90;;;;;;;-128.00;-1.00;-1.00;102591;1260;1058751;-79
2023/06/13 10:19:01;;;;;;;3.30;1.90;;;;;;;-128.00;-1.00;-1.00;102557;1260;1061934;-82
2023/06/13 10:21:28;;;;;;;3.30;1.80;;;;;;;-128.00;-1.00;-1.00;102505;1259;1004072;-82
2023/06/13 10:23:54;;;;;;;2.50;1.60;;;;;;;-128.00;-1.00;-1.00;102506;1259;1004459;-82
2023/06/13 10:26:35;;;;;;;4.70;1.80;;;;;;;-128.00;-1.00;-1.00;102675;1263;1004693;-82
2023/06/13 10:29:23;;;;;;;5.20;1.90;;;;;;;-128.00;-1.00;-1.00;102617;1263;1057424;-82
2023/06/13 10:31:52;;;;;;;;;;;;;;;-128.00;-1.00;-1.00;102657;1263;1061842;-79
2023/06/13 10:34:30;;;;;;;5.00;1.70;;;;;;;-128.00;-1.00;-1.00;102601;1262;1044670;-80
2023/06/13 10:37:03;;;;;;;2.30;1.60;;;;;;;-128.00;-1.00;-1.00;102885;1259;1048344;-80
2023/06/13 10:39:41;;;;;;;5.90;1.70;;;;;;;-128.00;-1.00;-1.00;102540;1259;1065892;-82
2023/06/13 10:42:28;;;;;;;2.60;1.90;;;;;;;-128.00;-1.00;-1.00;102392;1260;1062420;-79
2023/06/13 10:45:07;;;;;;;3.90;1.60;;;;;;;-128.00;-1.00;-1.00;102351;1264;1059998;-79
2023/06/13 10:47:36;;;;;;;2.60;1.90;;;;;;;-128.00;-1.00;-1.00;102346;1266;1044511;-82
2023/06/13 10:50:03;;;;;;;5.00;2.40;;;;;;;-128.00;-1.00;-1.00;102462;1260;1046852;-78
2023/06/13 10:52:30;;;;;;;3.00;1.60;;;;;;;-128.00;-1.00;-1.00;102411;1259;1003983;-77
2023/06/13 10:54:58;;;;;;;4.00;2.50;;;;;;;-128.00;-1.00;-1.00;102361;1260;1004354;-81
2023/06/13 10:57:52;;;;;;;6.90;3.70;;;;;;;-128.00;-1.00;-1.00;102178;1259;1004536;-81
2023/06/13 11:00:30;;;;;;;3.20;2.20;;;;;;;-128.00;-1.00;-1.00;102293;1259;1046845;-81
2023/06/13 11:02:58;;;;;;;5.40;1.60;;;;;;;-128.00;-1.00;-1.00;101909;1259;1048734;-78
2023/06/13 11:05:25;;;;;;;3.90;1.70;;;;;;;-128.00;-1.00;-1.00;101952;1266;1004260;-81
2023/06/13 11:07:55;;;;;;;3.90;2.00;;;;;;;-128.00;-1.00;-1.00;101931;1263;1003850;-80
2023/06/13 11:10:24;;;;;;;4.70;2.00;;;;;;;-128.00;-1.00;-1.00;101962;1264;1059762;-78
2023/06/13 11:12:53;;;;;;;4.50;1.80;;;;;;;-128.00;-1.00;-1.00;101900;1266;1045192;-78
2023/06/13 11:15:23;;;;;;;2.50;1.80;;;;;;;-128.00;-1.00;-1.00;102314;1264;1049701;-79
2023/06/13 11:18:08;;;;;;;4.00;1.50;;;;;;;-128.00;-1.00;-1.00;102344;1263;1062369;-81
2023/06/13 11:20:51;;;;;;;5.20;1.50;;;;;;;-128.00;-1.00;-1.00;102207;1261;1057177;-79